sensor_id;sensor_type;location;lat;lon;timestamp;temperature;humidity
24049;DHT22;12250;50.956;4.746;2023-04-01T00:02:01;10.70;99.90
24049;DHT22;12250;50.956;4.746;2023-04-01T00:04:27;10.70;99.90
24049;DHT22;12250;50.956;4.746;2023-04-01T00:06:53;10.70;99.90
24049;DHT22;12250;50.956;4.746;2023-04-01T00:09:19;10.70;99.90
24049;DHT22;12250;50.956;4.746;2023-04-01T00:11:44;10.70;99.90
24049;DHT22;12250;50.956;4.746;2023-04-01T00:14:11;10.70;99.90
24049;DHT22;12250;50.956;4.746;2023-04-01T00:16:37;10.80;99.90
24049;DHT22;12250;50.956;4.746;2023-04-01T00:19:02;10.70;99.90
24049;DHT22;12250;50.956;4.746;2023-04-01T00:21:28;10.80;99.90
24049;DHT22;12250;50.956;4.746;2023-04-01T00:23:54;10.80;99.90
24049;DHT22;12250;50.956;4.746;2023-04-01T00:26:20;10.80;99.90
24049;DHT22;12250;50.956;4.746;2023-04-01T00:28:47;10.80;99.90
24049;DHT22;12250;50.956;4.746;2023-04-01T00:31:13;10.70;99.90
24049;DHT22;12250;50.956;4.746;2023-04-01T00:33:40;10.70;99.90
24049;DHT22;12250;50.956;4.746;2023-04-01T00:36:15;10.80;99.90
24049;DHT22;12250;50.956;4.746;2023-04-01T00:38:42;10.80;99.90
24049;DHT22;12250;50.956;4.746;2023-04-01T00:41:09;10.80;99.90
24049;DHT22;12250;50.956;4.746;2023-04-01T00:43:40;10.80;99.90
24049;DHT22;12250;50.956;4.746;2023-04-01T00:46:06;10.70;99.90
24049;DHT22;12250;50.956;4.746;2023-04-01T00:48:39;10.70;99.90
24049;DHT22;12250;50.956;4.746;2023-04-01T00:51:18;10.70;99.90
24049;DHT22;12250;50.956;4.746;2023-04-01T00:53:48;10.80;99.90
24049;DHT22;12250;50.956;4.746;2023-04-01T00:56:22;10.70;99.90
24049;DHT22;12250;50.956;4.746;2023-04-01T00:58:56;10.80;99.90
24049;DHT22;12250;50.956;4.746;2023-04-01T01:01:24;10.80;99.90
24049;DHT22;12250;50.956;4.746;2023-04-01T01:03:50;10.80;99.90
24049;DHT22;12250;50.956;4.746;2023-04-01T01:06:36;10.70;99.90
24049;DHT22;12250;50.956;4.746;2023-04-01T01:14:35;10.80;99.90
24049;DHT22;12250;50.956;4.746;2023-04-01T01:17:10;10.80;99.90
24049;DHT22;12250;50.956;4.746;2023-04-01T01:25:10;10.70;99.90
24049;DHT22;12250;50.956;4.746;2023-04-01T01:27:42;10.80;99.90
24049;DHT22;12250;50.956;4.746;2023-04-01T01:33:20;10.80;99.90
24049;DHT22;12250;50.956;4.746;2023-04-01T01:35:53;10.80;99.90
24049;DHT22;12250;50.956;4.746;2023-04-01T01:38:23;10.70;99.90
24049;DHT22;12250;50.956;4.746;2023-04-01T01:40:51;10.80;99.90
24049;DHT22;12250;50.956;4.746;2023-04-01T01:43:29;10.70;99.90
24049;DHT22;12250;50.956;4.746;2023-04-01T01:45:58;10.80;99.90
24049;DHT22;12250;50.956;4.746;2023-04-01T01:48:26;10.70;99.90
24049;DHT22;12250;50.956;4.746;2023-04-01T01:50:53;10.70;99.90
24049;DHT22;12250;50.956;4.746;2023-04-01T01:53:18;10.80;99.90
24049;DHT22;12250;50.956;4.746;2023-04-01T01:55:47;10.70;99.90
24049;DHT22;12250;50.956;4.746;2023-04-01T01:58:32;10.80;99.90
24049;DHT22;12250;50.956;4.746;2023-04-01T02:01:10;10.70;99.90
24049;DHT22;12250;50.956;4.746;2023-04-01T02:03:39;10.80;99.90
24049;DHT22;12250;50.956;4.746;2023-04-01T02:06:10;10.70;99.90
24049;DHT22;12250;50.956;4.746;2023-04-01T02:08:47;10.70;99.90
24049;DHT22;12250;50.956;4.746;2023-04-01T02:11:21;10.70;99.90
24049;DHT22;12250;50.956;4.746;2023-04-01T02:13:56;10.70;99.90
24049;DHT22;12250;50.956;4.746;2023-04-01T02:16:36;10.80;99.90
24049;DHT22;12250;50.956;4.746;2023-04-01T02:19:04;10.70;99.90
24049;DHT22;12250;50.956;4.746;2023-04-01T02:21:33;10.70;99.90
24049;DHT22;12250;50.956;4.746;2023-04-01T02:24:03;10.70;99.90
24049;DHT22;12250;50.956;4.746;2023-04-01T02:26:30;10.70;99.90
24049;DHT22;12250;50.956;4.746;2023-04-01T02:28:57;10.70;99.90
24049;DHT22;12250;50.956;4.746;2023-04-01T02:31:25;10.70;99.90
24049;DHT22;12250;50.956;4.746;2023-04-01T02:33:51;10.60;99.90
24049;DHT22;12250;50.956;4.746;2023-04-01T02:36:17;10.60;99.90
24049;DHT22;12250;50.956;4.746;2023-04-01T02:38:44;10.50;99.90
24049;DHT22;12250;50.956;4.746;2023-04-01T02:41:11;10.50;99.90
24049;DHT22;12250;50.956;4.746;2023-04-01T02:43:37;10.50;99.90
24049;DHT22;12250;50.956;4.746;2023-04-01T02:46:03;10.50;99.90
24049;DHT22;12250;50.956;4.746;2023-04-01T02:48:29;10.40;99.90
24049;DHT22;12250;50.956;4.746;2023-04-01T02:50:55;10.40;99.90
24049;DHT22;12250;50.956;4.746;2023-04-01T02:53:21;10.50;99.90
24049;DHT22;12250;50.956;4.746;2023-04-01T02:55:46;10.50;99.90
24049;DHT22;12250;50.956;4.746;2023-04-01T02:58:16;10.50;99.90
24049;DHT22;12250;50.956;4.746;2023-04-01T03:00:42;10.50;99.90
24049;DHT22;12250;50.956;4.746;2023-04-01T03:03:08;10.50;99.90
24049;DHT22;12250;50.956;4.746;2023-04-01T03:05:34;10.50;99.90
24049;DHT22;12250;50.956;4.746;2023-04-01T03:08:00;10.40;99.90
24049;DHT22;12250;50.956;4.746;2023-04-01T03:10:25;10.40;99.90
24049;DHT22;12250;50.956;4.746;2023-04-01T03:12:51;10.50;99.90
24049;DHT22;12250;50.956;4.746;2023-04-01T03:15:17;10.50;99.90
24049;DHT22;12250;50.956;4.746;2023-04-01T03:17:43;10.40;99.90
24049;DHT22;12250;50.956;4.746;2023-04-01T03:20:09;10.40;99.90
24049;DHT22;12250;50.956;4.746;2023-04-01T03:22:36;10.40;99.90
24049;DHT22;12250;50.956;4.746;2023-04-01T03:25:03;10.40;99.90
24049;DHT22;12250;50.956;4.746;2023-04-01T03:27:29;10.40;99.90
24049;DHT22;12250;50.956;4.746;2023-04-01T03:29:55;10.40;99.90
24049;DHT22;12250;50.956;4.746;2023-04-01T03:32:21;10.50;99.90
24049;DHT22;12250;50.956;4.746;2023-04-01T03:34:46;10.50;99.90
24049;DHT22;12250;50.956;4.746;2023-04-01T03:37:12;10.50;99.90
24049;DHT22;12250;50.956;4.746;2023-04-01T03:39:38;10.50;99.90
24049;DHT22;12250;50.956;4.746;2023-04-01T03:42:03;10.50;99.90
24049;DHT22;12250;50.956;4.746;2023-04-01T03:44:35;10.40;99.90
24049;DHT22;12250;50.956;4.746;2023-04-01T03:47:01;10.30;99.90
24049;DHT22;12250;50.956;4.746;2023-04-01T03:49:26;10.40;99.90
24049;DHT22;12250;50.956;4.746;2023-04-01T03:51:52;10.30;99.90
24049;DHT22;12250;50.956;4.746;2023-04-01T03:54:19;10.40;99.90
24049;DHT22;12250;50.956;4.746;2023-04-01T03:56:46;10.40;99.90
24049;DHT22;12250;50.956;4.746;2023-04-01T03:59:12;10.40;99.90
24049;DHT22;12250;50.956;4.746;2023-04-01T04:01:38;10.40;99.90
24049;DHT22;12250;50.956;4.746;2023-04-01T04:04:04;10.30;99.90
24049;DHT22;12250;50.956;4.746;2023-04-01T04:06:30;10.40;99.90
24049;DHT22;12250;50.956;4.746;2023-04-01T04:08:56;10.40;99.90
24049;DHT22;12250;50.956;4.746;2023-04-01T04:11:22;10.30;99.90
24049;DHT22;12250;50.956;4.746;2023-04-01T04:13:48;10.40;99.90
24049;DHT22;12250;50.956;4.746;2023-04-01T04:16:15;10.40;99.90
24049;DHT22;12250;50.956;4.746;2023-04-01T04:18:41;10.40;99.90
24049;DHT22;12250;50.956;4.746;2023-04-01T04:21:07;10.40;99.90
24049;DHT22;12250;50.956;4.746;2023-04-01T04:23:32;10.50;99.90
24049;DHT22;12250;50.956;4.746;2023-04-01T04:26:00;10.40;99.90
24049;DHT22;12250;50.956;4.746;2023-04-01T04:28:27;10.50;99.90
24049;DHT22;12250;50.956;4.746;2023-04-01T04:30:53;10.40;99.90
24049;DHT22;12250;50.956;4.746;2023-04-01T04:33:20;10.40;99.90
24049;DHT22;12250;50.956;4.746;2023-04-01T04:35:46;10.40;99.90
24049;DHT22;12250;50.956;4.746;2023-04-01T04:38:12;10.40;99.90
24049;DHT22;12250;50.956;4.746;2023-04-01T04:40:39;10.40;99.90
24049;DHT22;12250;50.956;4.746;2023-04-01T04:43:05;10.40;99.90
24049;DHT22;12250;50.956;4.746;2023-04-01T04:45:31;10.50;99.90
24049;DHT22;12250;50.956;4.746;2023-04-01T04:47:57;10.40;99.90
24049;DHT22;12250;50.956;4.746;2023-04-01T04:50:23;10.30;99.90
24049;DHT22;12250;50.956;4.746;2023-04-01T04:52:49;10.30;99.90
24049;DHT22;12250;50.956;4.746;2023-04-01T04:55:16;10.40;99.90
24049;DHT22;12250;50.956;4.746;2023-04-01T04:57:41;10.40;99.90
24049;DHT22;12250;50.956;4.746;2023-04-01T05:00:08;10.30;99.90
24049;DHT22;12250;50.956;4.746;2023-04-01T05:02:35;10.30;99.90
24049;DHT22;12250;50.956;4.746;2023-04-01T05:05:01;10.40;99.90
24049;DHT22;12250;50.956;4.746;2023-04-01T05:07:27;10.40;99.90
24049;DHT22;12250;50.956;4.746;2023-04-01T05:09:52;10.40;99.90
24049;DHT22;12250;50.956;4.746;2023-04-01T05:12:18;10.40;99.90
24049;DHT22;12250;50.956;4.746;2023-04-01T05:14:44;10.40;99.90
24049;DHT22;12250;50.956;4.746;2023-04-01T05:17:10;10.40;99.90
24049;DHT22;12250;50.956;4.746;2023-04-01T05:19:36;10.40;99.90
24049;DHT22;12250;50.956;4.746;2023-04-01T05:22:02;10.40;99.90
24049;DHT22;12250;50.956;4.746;2023-04-01T05:24:28;10.40;99.90
24049;DHT22;12250;50.956;4.746;2023-04-01T05:26:54;10.40;99.90
24049;DHT22;12250;50.956;4.746;2023-04-01T05:29:20;10.40;99.90
24049;DHT22;12250;50.956;4.746;2023-04-01T05:31:46;10.30;99.90
24049;DHT22;12250;50.956;4.746;2023-04-01T05:34:11;10.40;99.90
24049;DHT22;12250;50.956;4.746;2023-04-01T05:36:38;10.30;99.90
24049;DHT22;12250;50.956;4.746;2023-04-01T05:39:03;10.40;99.90
24049;DHT22;12250;50.956;4.746;2023-04-01T05:41:29;10.40;99.90
24049;DHT22;12250;50.956;4.746;2023-04-01T05:43:55;10.30;99.90
24049;DHT22;12250;50.956;4.746;2023-04-01T05:46:20;10.30;99.90
24049;DHT22;12250;50.956;4.746;2023-04-01T05:48:46;10.30;99.90
24049;DHT22;12250;50.956;4.746;2023-04-01T05:51:13;10.30;99.90
24049;DHT22;12250;50.956;4.746;2023-04-01T05:53:40;10.30;99.90
24049;DHT22;12250;50.956;4.746;2023-04-01T05:56:06;10.30;99.90
24049;DHT22;12250;50.956;4.746;2023-04-01T05:58:32;10.30;99.90
24049;DHT22;12250;50.956;4.746;2023-04-01T06:01:09;10.40;99.90
24049;DHT22;12250;50.956;4.746;2023-04-01T06:03:35;10.40;99.90
24049;DHT22;12250;50.956;4.746;2023-04-01T06:06:01;10.40;99.90
24049;DHT22;12250;50.956;4.746;2023-04-01T06:08:27;10.40;99.90
24049;DHT22;12250;50.956;4.746;2023-04-01T06:19:11;10.40;99.90
24049;DHT22;12250;50.956;4.746;2023-04-01T06:22:02;10.40;99.90
24049;DHT22;12250;50.956;4.746;2023-04-01T06:24:47;10.40;99.90
24049;DHT22;12250;50.956;4.746;2023-04-01T06:30:23;10.50;99.90
24049;DHT22;12250;50.956;4.746;2023-04-01T06:36:12;10.60;99.90
24049;DHT22;12250;50.956;4.746;2023-04-01T06:44:30;10.60;99.90
24049;DHT22;12250;50.956;4.746;2023-04-01T06:48:09;10.50;99.90
24049;DHT22;12250;50.956;4.746;2023-04-01T06:50:11;10.50;99.90
24049;DHT22;12250;50.956;4.746;2023-04-01T06:55:48;10.50;99.90
24049;DHT22;12250;50.956;4.746;2023-04-01T06:58:27;10.50;99.90
24049;DHT22;12250;50.956;4.746;2023-04-01T07:00:57;10.50;99.90
24049;DHT22;12250;50.956;4.746;2023-04-01T07:03:30;10.50;99.90
24049;DHT22;12250;50.956;4.746;2023-04-01T07:06:02;10.50;99.90
24049;DHT22;12250;50.956;4.746;2023-04-01T07:08:29;10.50;99.90
24049;DHT22;12250;50.956;4.746;2023-04-01T07:11:03;10.50;99.90
24049;DHT22;12250;50.956;4.746;2023-04-01T07:13:54;10.50;99.90
24049;DHT22;12250;50.956;4.746;2023-04-01T07:16:46;10.50;99.90
24049;DHT22;12250;50.956;4.746;2023-04-01T07:21:54;10.30;99.90
24049;DHT22;12250;50.956;4.746;2023-04-01T07:24:56;10.30;99.90
24049;DHT22;12250;50.956;4.746;2023-04-01T07:27:15;10.40;99.90
24049;DHT22;12250;50.956;4.746;2023-04-01T07:29:41;10.40;99.90
24049;DHT22;12250;50.956;4.746;2023-04-01T07:32:38;10.50;99.90
24049;DHT22;12250;50.956;4.746;2023-04-01T07:37:58;10.50;99.90
24049;DHT22;12250;50.956;4.746;2023-04-01T07:43:02;10.60;99.90
24049;DHT22;12250;50.956;4.746;2023-04-01T07:45:55;10.60;99.90
24049;DHT22;12250;50.956;4.746;2023-04-01T07:51:04;10.60;99.90
24049;DHT22;12250;50.956;4.746;2023-04-01T07:54:03;10.60;99.90
24049;DHT22;12250;50.956;4.746;2023-04-01T08:01:57;10.90;99.90
24049;DHT22;12250;50.956;4.746;2023-04-01T08:15:13;11.10;99.90
24049;DHT22;12250;50.956;4.746;2023-04-01T08:20:40;11.10;99.90
24049;DHT22;12250;50.956;4.746;2023-04-01T08:23:24;11.10;99.90
24049;DHT22;12250;50.956;4.746;2023-04-01T08:29:13;11.20;99.90
24049;DHT22;12250;50.956;4.746;2023-04-01T08:31:48;11.20;99.90
24049;DHT22;12250;50.956;4.746;2023-04-01T08:34:30;11.20;99.90
24049;DHT22;12250;50.956;4.746;2023-04-01T08:37:12;11.20;99.90
24049;DHT22;12250;50.956;4.746;2023-04-01T08:39:57;11.20;99.90
24049;DHT22;12250;50.956;4.746;2023-04-01T08:42:49;11.20;99.90
24049;DHT22;12250;50.956;4.746;2023-04-01T08:45:48;11.30;99.90
24049;DHT22;12250;50.956;4.746;2023-04-01T08:48:36;11.40;99.90
24049;DHT22;12250;50.956;4.746;2023-04-01T08:57:19;11.40;99.90
24049;DHT22;12250;50.956;4.746;2023-04-01T08:59:47;11.50;99.90
24049;DHT22;12250;50.956;4.746;2023-04-01T10:14:13;12.30;99.90
24049;DHT22;12250;50.956;4.746;2023-04-01T10:19:30;12.40;99.90
24049;DHT22;12250;50.956;4.746;2023-04-01T10:47:07;12.70;99.90
24049;DHT22;12250;50.956;4.746;2023-04-01T11:03:54;12.70;99.90
24049;DHT22;12250;50.956;4.746;2023-04-01T11:15:06;12.50;99.90
24049;DHT22;12250;50.956;4.746;2023-04-01T11:23:20;12.90;99.90
24049;DHT22;12250;50.956;4.746;2023-04-01T11:39:44;12.60;99.90
24049;DHT22;12250;50.956;4.746;2023-04-01T11:42:36;12.70;99.90
24049;DHT22;12250;50.956;4.746;2023-04-01T11:56:14;13.50;99.90
24049;DHT22;12250;50.956;4.746;2023-04-01T12:04:33;13.50;99.90
24049;DHT22;12250;50.956;4.746;2023-04-01T12:07:41;13.50;99.90
24049;DHT22;12250;50.956;4.746;2023-04-01T12:10:18;13.50;99.90
24049;DHT22;12250;50.956;4.746;2023-04-01T12:13:04;13.50;99.90
24049;DHT22;12250;50.956;4.746;2023-04-01T12:18:38;13.70;99.90
24049;DHT22;12250;50.956;4.746;2023-04-01T12:21:28;13.70;99.90
24049;DHT22;12250;50.956;4.746;2023-04-01T12:29:48;13.30;99.90
24049;DHT22;12250;50.956;4.746;2023-04-01T12:32:40;13.10;99.90
24049;DHT22;12250;50.956;4.746;2023-04-01T12:43:59;12.40;99.90
24049;DHT22;12250;50.956;4.746;2023-04-01T12:46:56;12.30;99.90
24049;DHT22;12250;50.956;4.746;2023-04-01T12:55:40;12.40;99.90
24049;DHT22;12250;50.956;4.746;2023-04-01T13:09:41;12.80;99.90
24049;DHT22;12250;50.956;4.746;2023-04-01T13:18:01;12.70;99.90
24049;DHT22;12250;50.956;4.746;2023-04-01T13:31:38;12.60;99.90
24049;DHT22;12250;50.956;4.746;2023-04-01T13:42:48;12.60;99.90
24049;DHT22;12250;50.956;4.746;2023-04-01T13:45:21;12.50;99.90
24049;DHT22;12250;50.956;4.746;2023-04-01T13:59:42;12.40;99.90
24049;DHT22;12250;50.956;4.746;2023-04-01T14:02:40;12.40;99.90
24049;DHT22;12250;50.956;4.746;2023-04-01T14:17:21;12.20;99.90
24049;DHT22;12250;50.956;4.746;2023-04-01T14:22:28;12.20;99.90
24049;DHT22;12250;50.956;4.746;2023-04-01T14:33:29;12.50;99.90
24049;DHT22;12250;50.956;4.746;2023-04-01T14:41:50;12.60;99.90
24049;DHT22;12250;50.956;4.746;2023-04-01T14:46:55;12.60;99.90
24049;DHT22;12250;50.956;4.746;2023-04-01T14:49:35;12.50;99.90
24049;DHT22;12250;50.956;4.746;2023-04-01T14:52:33;12.50;99.90
24049;DHT22;12250;50.956;4.746;2023-04-01T14:55:02;12.50;99.90
24049;DHT22;12250;50.956;4.746;2023-04-01T14:57:36;12.60;99.90
24049;DHT22;12250;50.956;4.746;2023-04-01T15:00:17;12.60;99.90
24049;DHT22;12250;50.956;4.746;2023-04-01T15:08:41;12.30;99.90
24049;DHT22;12250;50.956;4.746;2023-04-01T15:21:54;12.00;99.90
24049;DHT22;12250;50.956;4.746;2023-04-01T15:24:25;12.00;99.90
24049;DHT22;12250;50.956;4.746;2023-04-01T15:43:36;11.80;99.90
24049;DHT22;12250;50.956;4.746;2023-04-01T15:49:21;12.00;99.90
24049;DHT22;12250;50.956;4.746;2023-04-01T15:54:25;12.00;99.90
24049;DHT22;12250;50.956;4.746;2023-04-01T16:02:54;11.80;99.90
24049;DHT22;12250;50.956;4.746;2023-04-01T16:16:28;11.90;99.90
24049;DHT22;12250;50.956;4.746;2023-04-01T16:21:50;11.80;99.90
24049;DHT22;12250;50.956;4.746;2023-04-01T16:24:20;11.60;99.90
24049;DHT22;12250;50.956;4.746;2023-04-01T16:26:54;11.60;99.90
24049;DHT22;12250;50.956;4.746;2023-04-01T16:33:18;11.50;99.90
24049;DHT22;12250;50.956;4.746;2023-04-01T16:46:32;11.00;99.90
24049;DHT22;12250;50.956;4.746;2023-04-01T16:54:36;10.90;99.90
24049;DHT22;12250;50.956;4.746;2023-04-01T16:59:58;10.90;99.90
24049;DHT22;12250;50.956;4.746;2023-04-01T17:02:42;10.80;99.90
24049;DHT22;12250;50.956;4.746;2023-04-01T17:05:11;10.80;99.90
24049;DHT22;12250;50.956;4.746;2023-04-01T17:08:06;10.80;99.90
24049;DHT22;12250;50.956;4.746;2023-04-01T17:11:04;10.80;99.90
24049;DHT22;12250;50.956;4.746;2023-04-01T17:13:46;10.80;99.90
24049;DHT22;12250;50.956;4.746;2023-04-01T17:19:06;10.60;99.90
24049;DHT22;12250;50.956;4.746;2023-04-01T17:24:42;10.40;99.90
24049;DHT22;12250;50.956;4.746;2023-04-01T17:27:37;10.40;99.90
24049;DHT22;12250;50.956;4.746;2023-04-01T17:46:50;10.30;99.90
24049;DHT22;12250;50.956;4.746;2023-04-01T17:51:58;10.40;99.90
24049;DHT22;12250;50.956;4.746;2023-04-01T17:54:40;10.30;99.90
24049;DHT22;12250;50.956;4.746;2023-04-01T18:08:55;10.30;99.90
24049;DHT22;12250;50.956;4.746;2023-04-01T18:22:54;10.30;99.90
24049;DHT22;12250;50.956;4.746;2023-04-01T18:25:42;10.30;99.90
24049;DHT22;12250;50.956;4.746;2023-04-01T18:28:38;10.30;99.90
24049;DHT22;12250;50.956;4.746;2023-04-01T18:31:19;10.30;99.90
24049;DHT22;12250;50.956;4.746;2023-04-01T18:39:39;10.40;99.90
24049;DHT22;12250;50.956;4.746;2023-04-01T18:45:17;10.40;99.90
24049;DHT22;12250;50.956;4.746;2023-04-01T18:53:08;10.30;99.90
24049;DHT22;12250;50.956;4.746;2023-04-01T18:55:49;10.30;99.90
24049;DHT22;12250;50.956;4.746;2023-04-01T18:58:33;10.30;99.90
24049;DHT22;12250;50.956;4.746;2023-04-01T19:06:45;10.20;99.90
24049;DHT22;12250;50.956;4.746;2023-04-01T19:09:44;10.20;99.90
24049;DHT22;12250;50.956;4.746;2023-04-01T19:17:44;10.20;99.90
24049;DHT22;12250;50.956;4.746;2023-04-01T19:25:55;10.10;99.90
24049;DHT22;12250;50.956;4.746;2023-04-01T19:31:48;10.10;99.90
24049;DHT22;12250;50.956;4.746;2023-04-01T19:34:21;10.10;99.90
24049;DHT22;12250;50.956;4.746;2023-04-01T19:36:58;10.00;99.90
24049;DHT22;12250;50.956;4.746;2023-04-01T19:53:22;10.10;99.90
24049;DHT22;12250;50.956;4.746;2023-04-01T20:01:22;10.10;99.90
24049;DHT22;12250;50.956;4.746;2023-04-01T20:03:56;10.20;99.90
24049;DHT22;12250;50.956;4.746;2023-04-01T20:12:30;10.10;99.90
24049;DHT22;12250;50.956;4.746;2023-04-01T20:15:03;10.10;99.90
24049;DHT22;12250;50.956;4.746;2023-04-01T20:17:43;10.10;99.90
24049;DHT22;12250;50.956;4.746;2023-04-01T20:25:25;10.10;99.90
24049;DHT22;12250;50.956;4.746;2023-04-01T20:36:12;10.10;99.90
24049;DHT22;12250;50.956;4.746;2023-04-01T20:53:16;10.20;99.90
24049;DHT22;12250;50.956;4.746;2023-04-01T21:25:27;10.50;99.90
24049;DHT22;12250;50.956;4.746;2023-04-01T21:47:26;10.50;99.90
24049;DHT22;12250;50.956;4.746;2023-04-01T22:06:40;10.30;99.90
24049;DHT22;12250;50.956;4.746;2023-04-01T22:09:17;10.30;99.90
24049;DHT22;12250;50.956;4.746;2023-04-01T22:14:37;10.20;99.90
24049;DHT22;12250;50.956;4.746;2023-04-01T22:17:21;10.20;99.90
24049;DHT22;12250;50.956;4.746;2023-04-01T22:25:22;10.30;99.90
24049;DHT22;12250;50.956;4.746;2023-04-01T22:28:00;10.20;99.90
24049;DHT22;12250;50.956;4.746;2023-04-01T22:36:37;9.90;99.90
24049;DHT22;12250;50.956;4.746;2023-04-01T22:38:51;10.10;99.90
24049;DHT22;12250;50.956;4.746;2023-04-01T22:44:16;10.00;99.90
24049;DHT22;12250;50.956;4.746;2023-04-01T22:46:49;10.10;99.90
24049;DHT22;12250;50.956;4.746;2023-04-01T22:49:18;10.00;99.90
24049;DHT22;12250;50.956;4.746;2023-04-01T22:56:48;10.00;99.90
24049;DHT22;12250;50.956;4.746;2023-04-01T23:04:49;10.10;99.90
24049;DHT22;12250;50.956;4.746;2023-04-01T23:10:26;10.10;99.90
24049;DHT22;12250;50.956;4.746;2023-04-01T23:12:58;10.00;99.90
24049;DHT22;12250;50.956;4.746;2023-04-01T23:15:24;9.90;99.90
24049;DHT22;12250;50.956;4.746;2023-04-01T23:20:47;9.70;99.90
24049;DHT22;12250;50.956;4.746;2023-04-01T23:36:11;9.60;99.90
24049;DHT22;12250;50.956;4.746;2023-04-01T23:38:40;9.60;99.90
24049;DHT22;12250;50.956;4.746;2023-04-01T23:41:09;9.60;99.90
24049;DHT22;12250;50.956;4.746;2023-04-01T23:43:43;9.60;99.90
24049;DHT22;12250;50.956;4.746;2023-04-01T23:46:11;9.40;99.90
24049;DHT22;12250;50.956;4.746;2023-04-01T23:48:43;9.30;99.90
24049;DHT22;12250;50.956;4.746;2023-04-01T23:51:25;9.30;99.90
24049;DHT22;12250;50.956;4.746;2023-04-01T23:54:18;9.20;99.90
24049;DHT22;12250;50.956;4.746;2023-04-01T23:56:47;9.20;99.90
24049;DHT22;12250;50.956;4.746;2023-04-01T23:59:18;9.10;99.90
